Time;durP1;ratioP1;P1;durP2;ratioP2;P2;SDS_P1;SDS_P2;PMS_P1;PMS_P2;Temp;Humidity;BMP_temperature;BMP_pressure;BME280_temperature;BME280_humidity;BME280_pressure;Samples;Min_cycle;Max_cycle;Signal;HPM_P1;HPM_P2
2023/01/27 00:01:52;;;;;;;9.23;2.22;;;;;;;3.84;100.00;102291.84;5258023;28;20029;-70
2023/01/27 00:04:23;;;;;;;11.27;3.65;;;;;;;3.86;100.00;102287.38;5257804;28;20442;-70
2023/01/27 00:06:54;;;;;;;12.82;2.53;;;;;;;3.81;100.00;102276.06;5255424;28;20072;-70
2023/01/27 00:09:26;;;;;;;10.95;2.30;;;;;;;3.82;100.00;102283.09;5254899;28;20116;-70
2023/01/27 00:14:46;;;;;;;11.57;2.80;;;;;;;3.79;100.00;102288.44;5255112;28;20037;-71
2023/01/27 00:17:18;;;;;;;15.38;2.75;;;;;;;3.78;100.00;102279.66;5259112;28;20025;-70
2023/01/27 00:19:49;;;;;;;13.75;2.40;;;;;;;3.77;100.00;102284.97;5255842;28;20133;-70
2023/01/27 00:25:10;;;;;;;6.50;2.22;;;;;;;3.73;100.00;102279.75;5257250;28;20037;-71
2023/01/27 00:27:42;;;;;;;12.75;2.58;;;;;;;3.71;100.00;102280.69;5254604;28;20313;-70
2023/01/27 00:30:13;;;;;;;13.35;2.85;;;;;;;3.70;100.00;102276.31;5253984;28;20391;-71
2023/01/27 00:35:34;;;;;;;9.13;2.67;;;;;;;3.69;100.00;102277.22;5254850;28;20123;-71
2023/01/27 00:38:05;;;;;;;9.48;2.15;;;;;;;3.68;100.00;102280.75;5255795;28;20464;-70
2023/01/27 00:40:37;;;;;;;14.90;2.72;;;;;;;3.64;100.00;102276.47;5254085;28;20369;-70
2023/01/27 00:43:08;;;;;;;14.60;2.65;;;;;;;3.64;100.00;102282.59;5250958;28;20200;-70
2023/01/27 00:45:48;;;;;;;10.18;2.30;;;;;;;3.62;100.00;102284.41;5255134;28;20027;-70
2023/01/27 00:48:19;;;;;;;11.35;2.50;;;;;;;3.61;100.00;102281.84;5251825;28;20036;-71
2023/01/27 00:50:50;;;;;;;14.15;2.78;;;;;;;3.59;100.00;102279.22;5254801;28;20025;-71
2023/01/27 00:53:22;;;;;;;15.77;2.78;;;;;;;3.59;100.00;102281.00;5262134;28;20033;-71
2023/01/27 00:55:53;;;;;;;11.43;2.28;;;;;;;3.56;100.00;102281.94;5255860;28;20036;-70
2023/01/27 00:58:26;;;;;;;12.30;2.80;;;;;;;3.57;100.00;102285.44;5254266;28;20036;-71
2023/01/27 01:00:59;;;;;;;11.73;2.67;;;;;;;3.52;100.00;102291.69;5251247;28;20036;-71
2023/01/27 01:03:32;;;;;;;10.80;3.53;;;;;;;3.51;100.00;102299.66;5253398;28;20391;-70
2023/01/27 01:06:07;;;;;;;12.98;2.50;;;;;;;3.48;100.00;102297.94;5254497;28;20041;-71
2023/01/27 01:08:38;;;;;;;10.38;2.75;;;;;;;3.47;100.00;102297.97;5253978;28;20529;-70
2023/01/27 01:11:12;;;;;;;11.95;2.83;;;;;;;3.45;100.00;102287.47;5262346;28;20107;-70
2023/01/27 01:13:44;;;;;;;12.05;2.92;;;;;;;3.43;100.00;102286.66;5255546;28;20461;-71
2023/01/27 01:16:19;;;;;;;13.25;3.17;;;;;;;3.44;100.00;102292.78;5254446;28;20036;-70
2023/01/27 01:18:50;;;;;;;13.77;3.15;;;;;;;3.39;100.00;102290.25;5256631;28;20021;-70
2023/01/27 01:21:22;;;;;;;10.80;3.35;;;;;;;3.38;100.00;102292.94;5254942;28;20053;-71
2023/01/27 01:23:53;;;;;;;13.30;3.05;;;;;;;3.38;100.00;102296.44;5254684;28;20040;-70
2023/01/27 01:26:24;;;;;;;10.05;3.15;;;;;;;3.37;100.00;102299.09;5254973;28;20047;-70
2023/01/27 01:28:56;;;;;;;10.45;3.15;;;;;;;3.37;100.00;102304.38;5254208;28;20036;-71
2023/01/27 01:31:27;;;;;;;12.90;3.55;;;;;;;3.34;100.00;102297.41;5256180;28;20082;-70
2023/01/27 01:33:58;;;;;;;12.77;3.72;;;;;;;3.31;100.00;102308.88;5259741;28;20024;-70
2023/01/27 01:36:29;;;;;;;13.85;3.47;;;;;;;3.33;100.00;102300.94;5249023;28;20029;-71
2023/01/27 01:39:01;;;;;;;11.93;3.63;;;;;;;3.30;100.00;102304.53;5251446;28;20021;-71
2023/01/27 01:41:32;;;;;;;9.63;3.50;;;;;;;3.30;100.00;102307.16;5258436;28;20035;-71
2023/01/27 01:44:27;;;;;;;14.15;3.65;;;;;;;3.29;100.00;102307.19;5256070;28;20602;-70
2023/01/27 01:46:59;;;;;;;17.67;4.18;;;;;;;3.33;100.00;102309.72;5253945;28;20357;-71
2023/01/27 01:49:37;;;;;;;13.93;3.80;;;;;;;3.27;100.00;102311.63;5251502;28;20087;-70
2023/01/27 01:52:15;;;;;;;14.57;4.00;;;;;;;3.24;100.00;102309.94;5252716;28;20037;-70
2023/01/27 01:54:50;;;;;;;10.40;3.33;;;;;;;3.24;100.00;102316.97;5249957;28;20033;-71
2023/01/27 01:57:27;;;;;;;12.32;3.58;;;;;;;3.23;100.00;102308.19;5250621;28;20028;-71
2023/01/27 02:00:06;;;;;;;12.70;3.63;;;;;;;3.25;100.00;102306.38;5245420;28;20032;-71
2023/01/27 02:02:39;;;;;;;9.15;4.18;;;;;;;3.22;100.00;102309.13;5247641;28;20432;-70
2023/01/27 02:05:27;;;;;;;14.80;4.03;;;;;;;3.21;100.00;102307.38;5245496;28;20021;-70
2023/01/27 02:08:06;;;;;;;12.27;4.03;;;;;;;3.23;100.00;102312.63;5248092;28;20040;-71
2023/01/27 02:10:38;;;;;;;15.38;4.05;;;;;;;3.20;100.00;102312.66;5244577;28;20144;-71
2023/01/27 02:13:09;;;;;;;14.88;4.78;;;;;;;3.17;100.00;102313.63;5247897;28;20274;-71
2023/01/27 02:15:40;;;;;;;12.40;4.50;;;;;;;3.19;100.00;102309.16;5246395;28;20430;-71
2023/01/27 02:18:13;;;;;;;11.55;4.45;;;;;;;3.13;100.00;102307.53;5245675;28;20025;-70
2023/01/27 02:20:48;;;;;;;14.52;4.28;;;;;;;3.14;100.00;102311.03;5243792;28;20084;-70
2023/01/27 02:23:40;;;;;;;11.43;3.85;;;;;;;3.16;100.00;102311.88;5248674;28;20028;-70
2023/01/27 02:26:17;;;;;;;11.07;4.22;;;;;;;3.11;100.00;102308.47;5251727;28;20028;-70
2023/01/27 02:28:59;;;;;;;11.27;5.18;;;;;;;3.11;100.00;102316.38;5250738;28;20086;-71
2023/01/27 02:52:17;;;;;;;11.45;4.75;;;;;;;3.05;100.00;102335.84;5249640;28;20036;-72
2023/01/27 02:54:48;;;;;;;11.02;4.40;;;;;;;3.02;100.00;102328.00;5253168;28;20037;-71
2023/01/27 02:57:20;;;;;;;15.30;5.40;;;;;;;3.05;100.00;102334.94;5250532;28;20050;-70
2023/01/27 02:59:51;;;;;;;13.77;4.82;;;;;;;3.04;100.00;102336.72;5251910;28;20094;-71
2023/01/27 03:02:29;;;;;;;12.25;5.05;;;;;;;3.02;100.00;102335.03;5247496;28;20119;-70
2023/01/27 03:05:00;;;;;;;14.02;5.15;;;;;;;3.04;100.00;102325.31;5247820;28;20056;-71
2023/01/27 03:07:31;;;;;;;14.23;5.65;;;;;;;2.99;100.00;102332.44;5248867;28;20028;-70
2023/01/27 03:10:03;;;;;;;10.65;5.07;;;;;;;2.99;100.00;102337.72;5249202;28;20035;-71
2023/01/27 03:12:34;;;;;;;11.63;5.25;;;;;;;2.99;100.00;102337.72;5250138;28;20136;-71
2023/01/27 03:18:14;;;;;;;12.63;5.03;;;;;;;2.98;100.00;102343.91;5251303;28;20471;-71
2023/01/27 03:20:47;;;;;;;12.88;5.50;;;;;;;2.95;100.00;102336.91;5248193;28;20048;-70
2023/01/27 03:23:19;;;;;;;14.85;5.75;;;;;;;2.94;100.00;102336.06;5247964;28;20048;-71
2023/01/27 03:25:50;;;;;;;16.77;6.10;;;;;;;2.93;100.00;102338.72;5249816;28;20044;-71
2023/01/27 03:28:21;;;;;;;12.07;6.70;;;;;;;2.93;100.00;102346.63;5245917;28;20041;-70
2023/01/27 03:31:03;;;;;;;14.02;6.72;;;;;;;2.92;100.00;102337.84;5248411;28;20033;-70
2023/01/27 03:33:34;;;;;;;13.55;6.20;;;;;;;2.91;100.00;102340.53;5248082;28;20040;-71
2023/01/27 03:47:26;;;;;;;14.50;7.28;;;;;;;2.92;100.00;102358.09;5246254;28;20049;-70
2023/01/27 03:49:57;;;;;;;14.20;6.63;;;;;;;2.93;100.00;102370.34;5247810;28;20033;-71
2023/01/27 03:52:28;;;;;;;14.98;7.03;;;;;;;2.93;100.00;102365.97;5246029;28;20116;-70
2023/01/27 03:55:00;;;;;;;19.10;7.47;;;;;;;2.91;100.00;102358.97;5248601;28;20037;-70
2023/01/27 03:57:31;;;;;;;13.90;7.68;;;;;;;2.92;100.00;102366.00;5249424;28;20359;-71
2023/01/27 04:00:03;;;;;;;16.70;8.30;;;;;;;2.92;100.00;102368.63;5248389;28;20529;-71
2023/01/27 04:08:15;;;;;;;16.50;8.10;;;;;;;2.87;100.00;102368.72;5249400;28;20028;-71
2023/01/27 04:11:53;;;;;;;14.57;7.85;;;;;;;2.87;100.00;102371.34;5250782;28;20478;-71
2023/01/27 04:13:37;;;;;;;18.45;8.48;;;;;;;2.86;100.00;102374.91;5246655;28;20380;-71
2023/01/27 04:16:09;;;;;;;17.67;8.38;;;;;;;2.86;100.00;102374.91;5246375;28;20040;-71
2023/01/27 04:18:40;;;;;;;17.50;8.82;;;;;;;2.85;100.00;102367.00;5251887;28;20028;-70
2023/01/27 04:21:12;;;;;;;15.35;8.23;;;;;;;2.84;100.00;102366.16;5248685;28;20048;-71
2023/01/27 04:23:44;;;;;;;17.60;8.77;;;;;;;2.83;100.00;102359.13;5247630;28;20039;-70
2023/01/27 04:26:15;;;;;;;21.23;9.20;;;;;;;2.85;100.00;102367.00;5250468;28;20475;-71
2023/01/27 04:28:47;;;;;;;19.52;9.07;;;;;;;2.83;100.00;102364.41;5249537;28;20491;-70
2023/01/27 04:31:18;;;;;;;17.95;8.88;;;;;;;2.84;100.00;102371.41;5250879;28;20108;-70
2023/01/27 04:33:49;;;;;;;23.17;9.60;;;;;;;2.83;100.00;102372.31;5250510;28;20822;-70
2023/01/27 04:36:21;;;;;;;22.00;10.82;;;;;;;2.84;100.00;102375.81;5249989;28;20484;-71
2023/01/27 04:38:52;;;;;;;21.48;10.23;;;;;;;2.84;100.00;102379.34;5249576;28;20502;-72
2023/01/27 04:41:24;;;;;;;20.70;10.00;;;;;;;2.83;100.00;102385.50;5250105;28;20035;-71
2023/01/27 04:43:55;;;;;;;20.42;10.77;;;;;;;2.84;100.00;102376.69;5247643;28;20494;-71
2023/01/27 04:46:26;;;;;;;24.13;11.45;;;;;;;2.88;100.00;102374.88;5244848;28;20467;-70
2023/01/27 04:48:58;;;;;;;21.73;10.15;;;;;;;2.82;100.00;102378.50;5248030;28;20028;-70
2023/01/27 04:51:29;;;;;;;23.77;10.95;;;;;;;2.83;100.00;102385.50;5249774;28;20036;-71
2023/01/27 04:54:02;;;;;;;21.60;11.68;;;;;;;2.82;100.00;102381.13;5249143;28;20033;-71
2023/01/27 04:56:39;;;;;;;24.45;11.20;;;;;;;2.83;100.00;102388.13;5246059;28;20075;-71
2023/01/27 04:59:13;;;;;;;22.58;11.60;;;;;;;2.82;100.00;102386.41;5248623;28;20055;-71
2023/01/27 05:01:44;;;;;;;23.58;11.85;;;;;;;2.83;100.00;102387.25;5244361;28;20160;-70
2023/01/27 05:04:15;;;;;;;23.30;11.30;;;;;;;2.82;100.00;102389.03;5246739;28;20039;-71
2023/01/27 05:06:46;;;;;;;21.90;11.32;;;;;;;2.82;100.00;102382.88;5247394;28;20033;-71
2023/01/27 05:09:18;;;;;;;20.42;11.10;;;;;;;2.82;100.00;102385.50;5247313;28;20315;-70
2023/01/27 05:11:49;;;;;;;21.48;10.85;;;;;;;2.82;100.00;102399.59;5241665;28;20376;-71
2023/01/27 05:14:22;;;;;;;21.45;11.32;;;;;;;2.81;100.00;102400.47;5246067;28;20024;-71
2023/01/27 05:16:53;;;;;;;23.17;10.77;;;;;;;2.85;100.00;102409.19;5247717;28;20037;-71
2023/01/27 05:19:24;;;;;;;20.40;10.90;;;;;;;2.82;100.00;102404.84;5248393;28;20493;-71
2023/01/27 05:21:56;;;;;;;19.50;10.50;;;;;;;2.82;100.00;102404.84;5247148;28;20061;-71
2023/01/27 05:24:27;;;;;;;16.95;9.90;;;;;;;2.80;100.00;102401.38;5245446;28;20564;-71
2023/01/27 05:26:58;;;;;;;21.55;10.73;;;;;;;2.83;100.00;102410.97;5248125;28;20048;-71
2023/01/27 05:29:30;;;;;;;16.52;9.90;;;;;;;2.83;100.00;102416.25;5249249;28;20024;-71
2023/01/27 05:32:01;;;;;;;17.23;10.65;;;;;;;2.83;100.00;102419.75;5247412;28;20024;-71
2023/01/27 05:34:32;;;;;;;21.30;10.93;;;;;;;2.83;100.00;102417.13;5247328;28;20039;-71
2023/01/27 05:37:03;;;;;;;19.00;11.02;;;;;;;2.84;100.00;102426.78;5244936;28;21036;-70
2023/01/27 05:39:35;;;;;;;18.63;10.68;;;;;;;2.83;100.00;102425.03;5246210;28;20487;-70
2023/01/27 05:42:06;;;;;;;19.05;10.77;;;;;;;2.85;100.00;102422.38;5242039;28;20429;-71
2023/01/27 05:44:37;;;;;;;17.60;11.05;;;;;;;2.86;100.00;102422.34;5246671;28;20410;-71
2023/01/27 05:47:09;;;;;;;19.60;11.10;;;;;;;2.83;100.00;102426.81;5249538;28;20531;-71
2023/01/27 05:49:40;;;;;;;16.63;10.43;;;;;;;2.85;100.00;102430.28;5247892;28;20387;-71
2023/01/27 05:52:11;;;;;;;17.58;9.82;;;;;;;2.82;100.00;102433.84;5249848;28;20032;-71
2023/01/27 05:54:42;;;;;;;18.48;10.63;;;;;;;2.85;100.00;102433.78;5240966;28;20044;-71
2023/01/27 05:57:14;;;;;;;17.95;10.88;;;;;;;2.85;100.00;102431.13;5245488;28;20028;-71
2023/01/27 05:59:45;;;;;;;18.90;10.85;;;;;;;2.86;100.00;102432.88;5245218;28;20029;-70
2023/01/27 06:02:16;;;;;;;21.33;11.55;;;;;;;2.85;100.00;102432.91;5244340;28;20139;-71
2023/01/27 06:04:47;;;;;;;16.55;9.77;;;;;;;2.83;100.00;102434.72;5248556;28;20475;-71
2023/01/27 06:07:19;;;;;;;19.02;10.13;;;;;;;2.83;100.00;102439.97;5243478;28;20442;-71
2023/01/27 06:09:50;;;;;;;17.55;9.63;;;;;;;2.86;100.00;102438.16;5242242;28;20044;-71
2023/01/27 06:12:21;;;;;;;17.05;10.30;;;;;;;2.87;100.00;102434.59;5245086;28;20436;-71
2023/01/27 06:14:54;;;;;;;17.25;10.20;;;;;;;2.83;100.00;102446.13;5243752;28;20040;-71
2023/01/27 06:17:25;;;;;;;16.17;10.18;;;;;;;2.85;100.00;102439.03;5247739;28;20018;-71
2023/01/27 06:19:56;;;;;;;16.52;9.75;;;;;;;2.83;100.00;102446.13;5244390;28;21457;-71
2023/01/27 06:22:28;;;;;;;16.83;10.35;;;;;;;2.86;100.00;102442.56;5249064;28;20567;-71
2023/01/27 06:24:59;;;;;;;15.95;9.82;;;;;;;2.84;100.00;102442.59;5255048;28;20040;-71
2023/01/27 06:27:30;;;;;;;15.90;9.65;;;;;;;2.83;100.00;102451.38;5247326;28;20052;-70
2023/01/27 06:30:01;;;;;;;16.02;9.70;;;;;;;2.85;100.00;102448.72;5250600;28;20028;-71
2023/01/27 06:32:35;;;;;;;14.40;9.48;;;;;;;2.84;100.00;102455.78;5254839;28;20034;-71
2023/01/27 06:35:06;;;;;;;16.45;10.68;;;;;;;2.89;100.00;102447.78;5249062;28;20497;-71
2023/01/27 06:37:38;;;;;;;16.15;9.98;;;;;;;2.85;100.00;102452.22;5245539;28;20032;-71
2023/01/27 06:40:10;;;;;;;17.30;10.02;;;;;;;2.88;100.00;102460.09;5246768;28;20029;-71
2023/01/27 06:42:42;;;;;;;16.00;10.32;;;;;;;2.89;100.00;102456.53;5239373;28;20083;-71
2023/01/27 06:45:14;;;;;;;15.23;9.57;;;;;;;2.89;100.00;102463.59;5238422;28;20099;-70
2023/01/27 06:47:53;;;;;;;15.20;9.43;;;;;;;2.93;100.00;102458.25;5244597;28;20021;-70
2023/01/27 06:50:26;;;;;;;13.93;8.63;;;;;;;2.90;100.00;102457.44;5251687;28;20039;-71
2023/01/27 06:53:00;;;;;;;14.13;9.13;;;;;;;2.89;100.00;102453.03;5248472;28;20055;-71
2023/01/27 06:55:32;;;;;;;15.32;9.73;;;;;;;3.00;100.00;102460.75;5249561;28;20029;-70
2023/01/27 06:58:03;;;;;;;14.98;9.18;;;;;;;2.93;100.00;102462.63;5244821;28;20121;-71
2023/01/27 07:00:36;;;;;;;14.07;8.98;;;;;;;2.99;100.00;102466.91;5239734;28;20029;-71
2023/01/27 07:03:10;;;;;;;14.63;9.02;;;;;;;2.99;100.00;102459.88;5243327;28;20592;-71
2023/01/27 07:05:41;;;;;;;15.45;8.82;;;;;;;2.98;100.00;102463.41;5249036;28;20459;-70
2023/01/27 07:08:12;;;;;;;15.90;8.65;;;;;;;2.97;100.00;102463.44;5253602;28;20074;-70
2023/01/27 07:10:44;;;;;;;13.68;8.65;;;;;;;2.98;100.00;102467.84;5253226;28;20037;-70
2023/01/27 07:13:15;;;;;;;13.18;8.25;;;;;;;2.97;100.00;102461.66;5260173;28;20039;-70
2023/01/27 07:15:52;;;;;;;12.05;8.38;;;;;;;3.03;100.00;102468.59;5259312;28;20222;-71
2023/01/27 07:18:23;;;;;;;11.88;7.93;;;;;;;2.97;100.00;102469.56;5254073;28;20040;-71
2023/01/27 07:20:54;;;;;;;11.95;7.97;;;;;;;2.98;100.00;102466.06;5262561;28;20092;-70
2023/01/27 07:23:26;;;;;;;10.68;7.20;;;;;;;3.02;100.00;102467.72;5258468;28;20040;-71
2023/01/27 07:26:00;;;;;;;10.60;7.30;;;;;;;3.01;100.00;102467.75;5255181;28;20044;-71
2023/01/27 07:28:32;;;;;;;12.40;7.25;;;;;;;3.03;100.00;102469.50;5252472;28;20049;-70
2023/01/27 07:31:04;;;;;;;11.10;6.72;;;;;;;3.04;100.00;102473.84;5253728;28;20056;-72
2023/01/27 07:33:36;;;;;;;10.63;7.03;;;;;;;3.03;100.00;102471.22;5250949;28;20776;-71
2023/01/27 07:36:07;;;;;;;10.50;6.90;;;;;;;3.03;100.00;102481.78;5256065;28;20146;-71
2023/01/27 07:38:38;;;;;;;10.23;6.82;;;;;;;3.00;100.00;102472.16;5254135;28;20535;-71
2023/01/27 07:41:10;;;;;;;10.48;6.88;;;;;;;3.06;100.00;102482.59;5253907;28;20021;-71
2023/01/27 07:43:41;;;;;;;10.25;6.60;;;;;;;3.04;100.00;102488.81;5251531;28;20029;-71
2023/01/27 07:46:13;;;;;;;11.18;6.88;;;;;;;3.05;100.00;102491.41;5251362;28;20037;-71
2023/01/27 07:48:44;;;;;;;9.30;6.75;;;;;;;3.09;100.00;102485.19;5253910;28;20033;-71
2023/01/27 07:51:16;;;;;;;12.30;7.97;;;;;;;3.08;100.00;102488.72;5252777;28;20067;-71
2023/01/27 07:53:47;;;;;;;13.48;9.27;;;;;;;3.11;100.00;102495.72;5255186;28;20114;-71
2023/01/27 07:56:19;;;;;;;14.35;9.75;;;;;;;3.13;100.00;102501.81;5255134;28;20079;-71
2023/01/27 07:58:52;;;;;;;13.73;8.18;;;;;;;3.11;100.00;102493.94;5255436;28;20064;-71
2023/01/27 08:01:24;;;;;;;14.07;8.40;;;;;;;3.12;100.00;102493.03;5250924;28;20036;-71
2023/01/27 08:03:55;;;;;;;13.57;8.13;;;;;;;3.16;100.00;102500.88;5253721;28;20029;-71
2023/01/27 08:06:27;;;;;;;12.70;8.35;;;;;;;3.19;100.00;102492.94;5253403;28;20086;-71
2023/01/27 08:08:59;;;;;;;17.75;9.70;;;;;;;3.17;100.00;102505.28;5252628;28;20121;-71
2023/01/27 08:11:30;;;;;;;13.73;8.73;;;;;;;3.13;100.00;102494.78;5251834;28;20025;-71
2023/01/27 08:14:02;;;;;;;12.55;8.10;;;;;;;3.10;100.00;102488.69;5253739;28;20032;-70
2023/01/27 08:16:33;;;;;;;13.75;9.05;;;;;;;3.18;100.00;102499.94;5256035;28;20043;-70
2023/01/27 08:19:05;;;;;;;11.70;7.50;;;;;;;3.16;100.00;102492.97;5255165;28;20032;-71
2023/01/27 08:21:36;;;;;;;13.20;7.28;;;;;;;3.14;100.00;102495.63;5249280;28;20086;-71
2023/01/27 08:24:09;;;;;;;8.40;5.60;;;;;;;3.18;100.00;102499.09;5253389;28;20109;-71
2023/01/27 08:26:40;;;;;;;8.13;5.60;;;;;;;3.22;100.00;102513.94;5254377;28;20357;-70
2023/01/27 08:29:11;;;;;;;8.75;6.03;;;;;;;3.21;100.00;102497.28;5254097;28;20374;-71
2023/01/27 08:31:42;;;;;;;8.35;5.68;;;;;;;3.18;100.00;102502.59;5249855;28;20025;-71
2023/01/27 08:34:15;;;;;;;9.57;6.07;;;;;;;3.21;100.00;102510.44;5254303;28;20097;-71
2023/01/27 08:36:47;;;;;;;10.75;6.03;;;;;;;3.22;100.00;102506.94;5253291;28;20033;-71
2023/01/27 08:39:18;;;;;;;8.00;6.13;;;;;;;3.21;100.00;102507.81;5250855;28;20028;-71
2023/01/27 08:41:49;;;;;;;9.95;6.70;;;;;;;3.22;100.00;102509.56;5249232;28;20029;-71
2023/01/27 08:44:20;;;;;;;8.45;6.10;;;;;;;3.21;100.00;102521.00;5251029;28;20399;-71
2023/01/27 08:46:52;;;;;;;10.60;6.20;;;;;;;3.24;100.00;102515.69;5252363;28;20087;-71
2023/01/27 08:49:23;;;;;;;7.60;5.57;;;;;;;3.24;100.00;102520.06;5250724;28;20029;-71
2023/01/27 08:51:54;;;;;;;9.02;6.07;;;;;;;3.27;100.00;102518.25;5252669;28;20033;-71
2023/01/27 08:54:25;;;;;;;8.65;5.75;;;;;;;3.27;100.00;102526.16;5257443;28;20047;-71
2023/01/27 08:56:57;;;;;;;7.82;5.50;;;;;;;3.26;100.00;102532.34;5253579;28;20479;-71
2023/01/27 08:59:28;;;;;;;10.35;6.07;;;;;;;3.28;100.00;102532.28;5266206;28;20544;-71
2023/01/27 09:01:59;;;;;;;9.07;6.22;;;;;;;3.27;100.00;102534.06;5249742;28;20399;-70
2023/01/27 09:04:31;;;;;;;7.82;5.85;;;;;;;3.28;100.00;102546.38;5248884;28;20029;-71
2023/01/27 09:07:02;;;;;;;8.70;6.45;;;;;;;3.29;100.00;102548.09;5254630;28;20025;-71
2023/01/27 09:09:33;;;;;;;11.10;6.15;;;;;;;3.28;100.00;102545.47;5250517;28;20055;-71
2023/01/27 09:12:05;;;;;;;9.10;6.38;;;;;;;3.30;100.00;102546.34;5251945;28;20417;-71
2023/01/27 09:14:36;;;;;;;10.93;7.05;;;;;;;3.31;100.00;102548.94;5251522;28;20036;-71
2023/01/27 09:17:07;;;;;;;11.10;7.55;;;;;;;3.32;100.00;102547.19;5251797;28;20471;-71
2023/01/27 09:19:38;;;;;;;9.85;6.88;;;;;;;3.33;100.00;102546.28;5255122;28;20032;-71
2023/01/27 09:22:10;;;;;;;9.77;6.30;;;;;;;3.34;100.00;102551.53;5252242;28;20072;-71
2023/01/27 09:24:41;;;;;;;9.10;5.82;;;;;;;3.39;100.00;102547.94;5250286;28;20037;-71
2023/01/27 09:27:12;;;;;;;8.93;6.05;;;;;;;3.40;100.00;102557.59;5252760;28;20503;-71
2023/01/27 09:29:44;;;;;;;8.05;5.07;;;;;;;3.42;100.00;102551.38;5252350;28;20039;-71
2023/01/27 09:32:15;;;;;;;6.75;4.93;;;;;;;3.42;100.00;102546.13;5250645;28;20545;-71
2023/01/27 09:34:46;;;;;;;10.27;5.55;;;;;;;3.44;100.00;102546.09;5252741;28;20029;-72
2023/01/27 09:37:18;;;;;;;7.30;5.38;;;;;;;3.48;100.00;102561.81;5252341;28;20083;-71
2023/01/27 09:39:55;;;;;;;8.43;5.28;;;;;;;3.51;100.00;102555.63;5252493;28;20029;-71
2023/01/27 09:42:56;;;;;;;6.53;5.18;;;;;;;3.53;100.00;102556.47;5250929;28;20025;-71
2023/01/27 09:45:51;;;;;;;7.22;4.85;;;;;;;3.56;100.00;102566.94;5231210;28;20127;-71
2023/01/27 09:48:52;;;;;;;8.13;5.07;;;;;;;3.56;100.00;102561.66;5249778;28;20025;-71
2023/01/27 09:51:39;;;;;;;7.15;5.10;;;;;;;3.59;100.00;102564.25;5249034;28;20114;-71
2023/01/27 09:54:38;;;;;;;6.88;4.75;;;;;;;3.61;100.00;102572.16;5249425;28;20096;-71
2023/01/27 09:57:38;;;;;;;8.23;4.97;;;;;;;3.63;100.00;102573.00;5252514;28;20134;-72
2023/01/27 10:00:34;;;;;;;8.27;4.50;;;;;;;3.60;100.00;102570.41;5251168;28;20067;-71
2023/01/27 10:03:22;;;;;;;5.80;4.30;;;;;;;3.65;100.00;102572.06;5248429;28;20108;-71
2023/01/27 10:06:30;;;;;;;5.88;4.28;;;;;;;3.66;100.00;102580.84;5252006;28;20025;-71
2023/01/27 10:09:14;;;;;;;6.25;4.30;;;;;;;3.63;100.00;102588.84;5244164;28;20037;-71
2023/01/27 10:12:26;;;;;;;6.45;4.18;;;;;;;3.63;100.00;102584.41;5252510;28;20029;-72
2023/01/27 10:15:03;;;;;;;6.47;3.95;;;;;;;3.62;100.00;102577.38;5243457;28;20073;-71
2023/01/27 10:18:17;;;;;;;5.72;4.25;;;;;;;3.63;100.00;102580.91;5250362;28;20041;-71
2023/01/27 10:21:05;;;;;;;6.85;4.53;;;;;;;3.63;100.00;102586.19;5247649;28;20053;-71
2023/01/27 10:23:57;;;;;;;6.25;4.72;;;;;;;3.67;100.00;102585.22;5250946;28;20036;-72
2023/01/27 10:26:39;;;;;;;6.63;4.38;;;;;;;3.63;100.00;102573.84;5252406;28;20422;-72
2023/01/27 10:29:27;;;;;;;6.15;4.00;;;;;;;3.68;100.00;102576.41;5252369;28;20040;-72
2023/01/27 10:32:16;;;;;;;7.45;4.80;;;;;;;3.69;100.00;102571.09;5244378;28;20040;-72
2023/01/27 10:35:00;;;;;;;6.38;4.68;;;;;;;3.70;100.00;102569.31;5243384;28;20625;-72
2023/01/27 10:37:57;;;;;;;6.85;4.40;;;;;;;3.72;100.00;102563.13;5236619;28;20048;-72
2023/01/27 10:40:53;;;;;;;6.18;4.22;;;;;;;3.79;100.00;102566.50;5240524;28;20659;-72
2023/01/27 10:43:42;;;;;;;8.23;4.75;;;;;;;3.77;100.00;102567.44;5241809;28;20565;-73
2023/01/27 10:46:39;;;;;;;6.90;4.30;;;;;;;3.77;100.00;102567.44;5266801;28;20095;-73
2023/01/27 10:49:22;;;;;;;6.85;4.70;;;;;;;3.79;100.00;102561.22;5244323;28;20432;-72
2023/01/27 10:52:11;;;;;;;6.35;4.18;;;;;;;3.83;100.00;102565.53;5250377;28;20071;-72
2023/01/27 10:55:04;;;;;;;6.15;4.53;;;;;;;3.89;100.00;102564.53;5254525;28;20089;-72
2023/01/27 10:57:40;;;;;;;6.35;4.45;;;;;;;3.90;100.00;102567.16;5251228;28;20086;-71
2023/01/27 11:00:16;;;;;;;6.97;4.63;;;;;;;3.90;100.00;102566.28;5255298;28;20375;-72
2023/01/27 11:03:37;;;;;;;6.88;4.78;;;;;;;3.93;100.00;102568.84;5251694;28;20041;-72
2023/01/27 11:06:19;;;;;;;6.65;4.60;;;;;;;3.87;100.00;102559.31;5249538;28;20041;-72
2023/01/27 11:08:57;;;;;;;6.25;4.55;;;;;;;3.99;100.00;102560.81;5253616;28;20037;-72
2023/01/27 11:11:44;;;;;;;6.20;4.38;;;;;;;3.92;100.00;102559.19;5252524;28;20024;-72
2023/01/27 11:14:31;;;;;;;6.18;4.28;;;;;;;3.94;100.00;102554.75;5253912;28;20116;-72
2023/01/27 11:17:13;;;;;;;8.05;4.07;;;;;;;3.93;100.00;102553.88;5250452;28;20539;-72
2023/01/27 11:19:57;;;;;;;6.90;4.75;;;;;;;3.92;100.00;102554.78;5256036;28;20041;-72
2023/01/27 11:22:39;;;;;;;7.28;4.40;;;;;;;3.92;100.00;102559.19;5250676;28;20056;-72
2023/01/27 11:25:35;;;;;;;7.38;4.40;;;;;;;3.93;100.00;102560.91;5255764;28;20059;-72
2023/01/27 11:28:30;;;;;;;5.78;3.83;;;;;;;3.92;100.00;102559.19;5254386;28;20021;-72
2023/01/27 11:31:20;;;;;;;6.55;4.32;;;;;;;3.88;100.00;102563.66;5252053;28;20505;-72
2023/01/27 11:34:29;;;;;;;6.80;4.40;;;;;;;3.83;100.00;102557.59;5249482;28;20033;-72
2023/01/27 11:37:15;;;;;;;6.85;4.72;;;;;;;3.82;100.00;102563.81;5225907;28;20075;-72
2023/01/27 11:39:47;;;;;;;6.88;3.97;;;;;;;3.83;100.00;102556.75;5254266;28;20510;-72
2023/01/27 11:42:20;;;;;;;5.75;4.20;;;;;;;3.86;100.00;102559.34;5253827;28;20033;-72
2023/01/27 11:44:55;;;;;;;6.82;4.68;;;;;;;3.85;100.00;102558.44;5252785;28;20029;-72
2023/01/27 11:47:34;;;;;;;6.30;4.18;;;;;;;3.88;100.00;102553.09;5253599;28;20021;-72
2023/01/27 11:50:12;;;;;;;5.95;3.88;;;;;;;3.88;100.00;102546.97;5249593;28;20048;-71
2023/01/27 11:52:48;;;;;;;7.50;4.75;;;;;;;3.93;100.00;102539.78;5254100;28;20031;-72
2023/01/27 11:55:24;;;;;;;6.88;4.60;;;;;;;3.95;100.00;102542.41;5253699;28;20567;-73
2023/01/27 11:58:14;;;;;;;8.23;4.65;;;;;;;4.03;100.00;102543.13;5252174;28;20039;-73
2023/01/27 12:00:52;;;;;;;6.30;4.60;;;;;;;4.00;100.00;102548.47;5253530;28;20541;-72
2023/01/27 12:03:41;;;;;;;6.32;4.63;;;;;;;4.04;100.00;102545.72;5252326;28;20442;-72
2023/01/27 12:06:16;;;;;;;6.68;4.88;;;;;;;4.05;100.00;102550.09;5252538;28;20467;-72
2023/01/27 12:08:48;;;;;;;7.82;5.10;;;;;;;4.05;100.00;102538.69;5253995;28;20411;-72
2023/01/27 12:11:25;;;;;;;8.55;5.15;;;;;;;4.06;100.00;102546.53;5252218;28;20024;-72
2023/01/27 12:14:01;;;;;;;7.72;4.82;;;;;;;4.07;100.00;102542.16;5252273;28;20090;-72
2023/01/27 12:16:40;;;;;;;7.32;5.05;;;;;;;4.09;100.00;102543.84;5249111;28;20036;-72
2023/01/27 12:19:31;;;;;;;6.90;4.65;;;;;;;4.09;100.00;102546.50;5252501;28;20384;-72
2023/01/27 12:22:16;;;;;;;8.23;5.22;;;;;;;4.10;100.00;102534.16;5252604;28;20049;-72
2023/01/27 12:24:53;;;;;;;6.90;4.45;;;;;;;4.06;100.00;102535.97;5252803;28;20029;-72
2023/01/27 12:27:30;;;;;;;7.15;4.90;;;;;;;4.06;100.00;102538.63;5252175;28;20123;-72
2023/01/27 12:30:05;;;;;;;6.68;4.63;;;;;;;4.01;100.00;102536.97;5246891;28;20056;-72
2023/01/27 12:32:41;;;;;;;6.05;4.30;;;;;;;4.02;100.00;102536.09;5251067;28;20678;-72
2023/01/27 12:35:27;;;;;;;7.53;4.40;;;;;;;4.01;100.00;102531.69;5250914;28;20475;-72
2023/01/27 12:38:03;;;;;;;8.02;4.75;;;;;;;3.95;100.00;102530.09;5255056;28;20033;-72
2023/01/27 12:40:41;;;;;;;6.38;4.55;;;;;;;3.97;100.00;102530.94;5263256;28;20044;-72
2023/01/27 12:43:19;;;;;;;6.50;4.57;;;;;;;3.97;100.00;102535.31;5250164;28;20037;-72
2023/01/27 12:46:08;;;;;;;7.53;5.00;;;;;;;4.00;100.00;102524.69;5248677;28;20081;-72
2023/01/27 12:48:48;;;;;;;8.60;4.97;;;;;;;3.97;100.00;102527.41;5251521;28;20029;-72